createdAt,value
2018-10-17T00:00:20.075Z,88.4
2018-10-17T00:05:21.497Z,88.3
2018-10-17T00:10:21.362Z,89
2018-10-17T00:15:34.017Z,88.4
2018-10-17T00:20:33.937Z,89.5
2018-10-17T00:25:33.717Z,90.3
2018-10-17T00:30:33.870Z,90.5
2018-10-17T00:35:33.717Z,91.4
2018-10-17T00:40:34.113Z,91.3
2018-10-17T00:45:33.854Z,91.7
2018-10-17T00:50:34.411Z,90.7
2018-10-17T00:55:34.162Z,89.9
2018-10-17T01:00:48.144Z,90.2
2018-10-17T01:05:47.828Z,89.3
2018-10-17T01:10:47.728Z,89.7
2018-10-17T01:15:47.882Z,89.4
2018-10-17T01:20:47.934Z,90.3
2018-10-17T01:25:51.391Z,89.1
2018-10-17T01:30:51.792Z,90
2018-10-17T01:35:56.231Z,90.5
2018-10-17T01:40:56.448Z,91.4
2018-10-17T01:46:06.267Z,90.6
2018-10-17T01:51:06.178Z,90.6
2018-10-17T01:56:06.197Z,90.4
2018-10-17T02:01:06.302Z,90.6
2018-10-17T02:06:07.185Z,89.7
2018-10-17T02:11:06.166Z,90.6
2018-10-17T02:16:06.230Z,90.6
2018-10-17T02:21:09.144Z,91.4
2018-10-17T02:26:09.248Z,91.8
2018-10-17T02:31:19.693Z,89.6
2018-10-17T02:36:19.376Z,90.2
2018-10-17T02:41:19.510Z,90.2
2018-10-17T02:46:19.332Z,89.4
2018-10-17T02:51:19.292Z,90.4
2018-10-17T02:56:19.194Z,90.1
2018-10-17T03:01:19.534Z,89.7
2018-10-17T03:06:19.440Z,89.5
2018-10-17T03:11:19.710Z,90.8
2018-10-17T03:16:32.142Z,90.6
2018-10-17T03:21:31.863Z,90.4
2018-10-17T03:26:31.853Z,91.1
2018-10-17T03:31:32.303Z,91.3
2018-10-17T03:36:32.064Z,90.4
2018-10-17T03:41:31.847Z,90.7
2018-10-17T03:46:31.855Z,91.3
2018-10-17T03:51:32.375Z,91.4
2018-10-17T03:56:32.297Z,91.6
2018-10-17T04:01:45.011Z,91.1
2018-10-17T04:06:44.975Z,90.5
2018-10-17T04:11:44.755Z,90.9
2018-10-17T04:16:44.869Z,91
2018-10-17T04:21:44.811Z,91.2
2018-10-17T04:26:44.742Z,91.1
2018-10-17T04:31:44.747Z,90.9
2018-10-17T04:36:45.118Z,91.3
2018-10-17T04:41:44.810Z,92.2
2018-10-17T04:46:57.390Z,92
2018-10-17T04:51:56.973Z,92.9
2018-10-17T04:56:57.172Z,93.2
2018-10-17T05:01:56.980Z,92.5
2018-10-17T05:06:57.337Z,92.1
2018-10-17T05:11:56.986Z,91.2
2018-10-17T05:16:57.453Z,92
2018-10-17T05:21:58.172Z,92.1
2018-10-17T05:26:57.988Z,92.1
2018-10-17T05:32:10.848Z,92.5
2018-10-17T05:37:10.982Z,92.4
2018-10-17T05:42:10.815Z,91.8
2018-10-17T05:47:10.829Z,91.7
2018-10-17T05:52:10.596Z,90.9
2018-10-17T05:57:10.794Z,91.5
2018-10-17T06:02:11.212Z,91.2
2018-10-17T06:07:11.066Z,92.8
2018-10-17T06:12:10.874Z,92.3
2018-10-17T06:17:23.086Z,92.1
2018-10-17T06:22:22.632Z,92.9
2018-10-17T06:27:22.767Z,93.5
2018-10-17T06:32:22.638Z,94.9
2018-10-17T06:37:22.629Z,93.3
2018-10-17T06:42:22.779Z,92.2
2018-10-17T06:47:22.825Z,92.7
2018-10-17T06:52:25.179Z,91.4
2018-10-17T06:57:24.840Z,90.9
2018-10-17T07:02:37.382Z,90.2
2018-10-17T07:07:37.297Z,89.8
2018-10-17T07:12:37.104Z,91.4
2018-10-17T07:17:37.250Z,90.3
2018-10-17T07:22:37.680Z,89.8
2018-10-17T07:27:37.106Z,88.8
2018-10-17T07:32:37.109Z,88.5
2018-10-17T07:37:39.840Z,89.2
2018-10-17T07:42:39.604Z,86.7
2018-10-17T07:47:52.455Z,85.7
2018-10-17T07:52:52.212Z,83.2
2018-10-17T07:57:52.044Z,83.9
2018-10-17T08:02:52.080Z,83
2018-10-17T08:07:52.292Z,82.8
2018-10-17T08:12:52.316Z,81.8
2018-10-17T08:17:52.561Z,80.3
2018-10-17T08:22:52.461Z,80.2
2018-10-17T08:27:52.463Z,81
2018-10-17T08:33:04.469Z,80.5
2018-10-17T08:38:04.439Z,76.5
2018-10-17T08:43:04.382Z,80.7
2018-10-17T08:48:07.305Z,76.3
2018-10-17T08:53:04.462Z,78.9
2018-10-17T08:58:04.353Z,71
2018-10-17T09:03:04.226Z,74.5
2018-10-17T09:08:07.992Z,76.6
2018-10-17T09:13:07.461Z,73.2
2018-10-17T09:18:20.895Z,75.7
2018-10-17T09:23:20.585Z,74.9
2018-10-17T09:28:20.615Z,75.2
2018-10-17T09:33:20.533Z,73.3
2018-10-17T09:38:20.389Z,71.9
2018-10-17T09:43:20.791Z,72.4
2018-10-17T09:48:20.535Z,72.7
2018-10-17T09:53:21.699Z,69.6
2018-10-17T09:58:21.429Z,71.2
2018-10-17T10:03:33.718Z,70.9
2018-10-17T10:08:33.608Z,69.4
2018-10-17T10:13:33.389Z,69.5
2018-10-17T10:18:33.550Z,66.6
2018-10-17T10:23:33.572Z,68.6
2018-10-17T10:28:33.586Z,69.6
2018-10-17T10:33:33.398Z,67.5
2018-10-17T10:38:34.312Z,68.8
2018-10-17T10:43:33.849Z,69.6
2018-10-17T10:48:46.624Z,69.6
2018-10-17T10:53:46.496Z,68
2018-10-17T10:58:46.880Z,68.2
2018-10-17T11:03:46.351Z,67.3
2018-10-17T11:08:46.510Z,65.8
2018-10-17T11:13:46.566Z,67.2
2018-10-17T11:18:46.565Z,66.8
2018-10-17T11:23:47.342Z,66.2
2018-10-17T11:28:47.190Z,66
2018-10-17T11:33:59.212Z,65.7
2018-10-17T11:39:00.279Z,65.4
2018-10-17T11:43:58.961Z,64.1
2018-10-17T11:48:59.162Z,65.2
2018-10-17T11:53:59.191Z,63.4
2018-10-17T11:58:59.192Z,63.6
2018-10-17T12:03:59.681Z,61.5
2018-10-17T12:08:59.873Z,62.3
2018-10-17T12:13:59.535Z,61.9
2018-10-17T12:19:12.102Z,61.1
2018-10-17T12:24:12.032Z,61.2
2018-10-17T12:29:11.845Z,61.2
2018-10-17T12:34:11.577Z,61
2018-10-17T12:39:12.046Z,61.2
2018-10-17T12:44:11.831Z,60.6
2018-10-17T12:49:11.951Z,60.6
2018-10-17T12:54:12.986Z,60.4
2018-10-17T12:59:16.373Z,60.3
2018-10-17T13:04:25.398Z,60.7
2018-10-17T13:09:25.353Z,59.3
2018-10-17T13:14:25.335Z,60.2
2018-10-17T13:19:25.255Z,60.9
2018-10-17T13:24:25.333Z,59.5
2018-10-17T13:29:25.354Z,60.8
2018-10-17T13:34:25.590Z,60.4
2018-10-17T13:39:26.144Z,60.8
2018-10-17T13:44:26.043Z,61.1
2018-10-17T13:49:38.896Z,60.6
2018-10-17T13:54:38.423Z,60.8
2018-10-17T13:59:38.489Z,59.7
2018-10-17T14:04:38.449Z,60.1
2018-10-17T14:09:38.425Z,59.4
2018-10-17T14:14:38.341Z,59.3
2018-10-17T14:19:38.299Z,59.5
2018-10-17T14:24:38.758Z,60.3
2018-10-17T14:29:38.894Z,60
2018-10-17T14:34:51.335Z,59.9
2018-10-17T14:39:51.046Z,59.9
2018-10-17T14:44:51.261Z,59
2018-10-17T14:49:51.289Z,60.1
2018-10-17T14:54:51.234Z,61
2018-10-17T14:59:51.268Z,60.7
2018-10-17T15:04:51.309Z,61.3
2018-10-17T15:09:51.607Z,61.3
2018-10-17T15:14:51.345Z,61.7
2018-10-17T15:20:03.904Z,61.4
2018-10-17T15:25:03.604Z,62.3
2018-10-17T15:30:04.082Z,62.1
2018-10-17T15:35:03.596Z,63.1
2018-10-17T15:40:03.634Z,64.2
2018-10-17T15:45:04.097Z,64.9
2018-10-17T15:50:03.874Z,65.3
2018-10-17T15:55:03.704Z,66.7
2018-10-17T16:00:04.191Z,67.7
2018-10-17T16:05:16.324Z,68.1
2018-10-17T16:10:16.191Z,68.5
2018-10-17T16:15:16.224Z,70
2018-10-17T16:20:16.535Z,69.9
2018-10-17T16:25:16.019Z,70.9
2018-10-17T16:30:16.209Z,71.6
2018-10-17T16:35:16.284Z,73.1
2018-10-17T16:40:20.062Z,73
2018-10-17T16:45:19.769Z,73.2
2018-10-17T16:50:32.946Z,73.9
2018-10-17T16:55:32.283Z,74.9
2018-10-17T17:00:32.084Z,74.6
2018-10-17T17:05:32.362Z,74.9
2018-10-17T17:10:32.253Z,75.5
2018-10-17T17:15:32.101Z,76.4
2018-10-17T17:20:32.383Z,76.7
2018-10-17T17:25:34.833Z,76.8
2018-10-17T17:30:34.857Z,77.2
2018-10-17T17:35:46.877Z,78.7
2018-10-17T17:40:46.709Z,80.7
2018-10-17T17:45:46.721Z,81.2
2018-10-17T17:50:46.744Z,80.2
2018-10-17T17:55:46.712Z,80.2
2018-10-17T18:00:46.609Z,80.7
2018-10-17T18:05:46.600Z,81.1
2018-10-17T18:10:47.813Z,81.4
2018-10-17T18:15:47.767Z,81.7
2018-10-17T18:21:00.617Z,82.3
2018-10-17T18:26:00.347Z,83.2
2018-10-17T18:31:00.586Z,83
2018-10-17T18:36:00.688Z,83.1
2018-10-17T18:41:00.514Z,83.6
2018-10-17T18:46:00.575Z,84.1
2018-10-17T18:51:00.416Z,83.4
2018-10-17T18:56:00.603Z,83.9
2018-10-17T19:01:00.538Z,84.1
2018-10-17T19:06:13.124Z,84.1
2018-10-17T19:11:13.014Z,85.2
2018-10-17T19:16:13.239Z,85
2018-10-17T19:21:13.251Z,86
2018-10-17T19:26:13.029Z,86
2018-10-17T19:31:12.821Z,85.9
2018-10-17T19:36:13.329Z,86.3
2018-10-17T19:41:14.038Z,87.4
2018-10-17T19:46:14.020Z,87.1
2018-10-17T19:51:26.739Z,87.4
2018-10-17T19:56:26.618Z,88.8
2018-10-17T20:01:26.463Z,88.8
2018-10-17T20:06:26.697Z,88.8
2018-10-17T20:11:26.625Z,88.9
2018-10-17T20:16:26.669Z,88.8
2018-10-17T20:21:26.434Z,89.5
2018-10-17T20:26:27.157Z,90.2
2018-10-17T20:31:27.111Z,90.3
2018-10-17T20:36:42.291Z,89.9
2018-10-17T20:41:39.353Z,90.4
2018-10-17T20:46:39.196Z,90.2
2018-10-17T20:51:39.260Z,90.5
2018-10-17T20:56:39.411Z,90.6
2018-10-17T21:01:39.451Z,90.4
2018-10-17T21:06:39.355Z,90.7
2018-10-17T21:11:39.896Z,91.2
2018-10-17T21:16:39.668Z,90.6
2018-10-17T21:21:52.263Z,91.3
2018-10-17T21:26:52.476Z,91.7
2018-10-17T21:31:52.255Z,91.8
2018-10-17T21:36:52.168Z,91.5
2018-10-17T21:41:52.227Z,91.3
2018-10-17T21:46:52.139Z,91.1
2018-10-17T21:51:52.201Z,92
2018-10-17T21:56:52.323Z,91.8
2018-10-17T22:01:52.488Z,91.8
2018-10-17T22:06:52.093Z,93.3
2018-10-17T22:11:52.200Z,93.2
2018-10-17T22:16:52.245Z,92.9
2018-10-17T22:21:52.743Z,93.2
2018-10-17T22:26:52.641Z,92.3
2018-10-17T22:32:05.638Z,92.2
2018-10-17T22:37:05.301Z,92.5
2018-10-17T22:42:05.064Z,92.3
2018-10-17T22:47:05.096Z,91.8
2018-10-17T22:52:05.041Z,92.6
2018-10-17T22:57:05.096Z,92.1
2018-10-17T23:02:05.346Z,91.7
2018-10-17T23:07:05.286Z,91.5
2018-10-17T23:12:05.325Z,92
2018-10-17T23:17:17.476Z,92.6
2018-10-17T23:22:17.387Z,91.1
2018-10-17T23:27:17.287Z,91.6
2018-10-17T23:32:17.751Z,91.9
2018-10-17T23:37:17.377Z,92.1
2018-10-17T23:42:17.502Z,92.5
2018-10-17T23:47:17.330Z,93
2018-10-17T23:52:17.598Z,92.8
2018-10-17T23:57:17.505Z,92.5
